Thermopolis, Wyoming
Current Conditions -  °F | °C
As of 5:15 AM on Saturday 25 Oct 2014 (Local Time) from KTBX Reporting Station
Clear Clear  
Wind Chill: 44°   Ceiling: Unl
Heat Index: 48°   Visibility: 10mi
Dew Point: 18°   Wind: 10mph
Humidity: 30%   Direction: 130°SE
Pressure: 30.3"   Gusts: NA
Location:  43.65°N, 108.21°W
Report Text: KTBX 251115Z AUTO 13009KT 10SM CLR 09/M08 A3030 RMK AO2
Loading
Personal Weather Stations






























Interactive Weather Map
Tropical Storm Tracking
New forecast layout! Learn more

10-Day Weather Forecast

Advertisements
Track Severe Weather on mobile